Terminal Aerodrome Forecast
Issued by NWS

Home | Current Version | Previous Version | Graphics & Text | Print | Product List | Glossary On
Versions: 1 2 3 4 5 6 7 8 9 10 11 12 13 14
000
FTUS43 KOAX 190500
TAFCDR
TAF
KCDR 190520Z 1906/2006 18020G32KT P6SM SKC
     FM191000 20010KT P6SM SKC
     FM191400 27012KT P6SM SCT150
     FM191600 35012KT P6SM SCT120
     FM192000 35010KT P6SM BKN100=

USA.gov is the U.S. government's official web portal to all federal, state and local government web resources and services.